Weather at Évasion Hélicoptère Heliport

Public forecast

Using degrees Celsius for public forecast. Weather courtesy of forecast.io.

Closest aviation weather report (METAR) to Évasion Hélicoptère Heliport

Closest report is Montreal / Pierre Elliott Trudeau International Airport, 11.0 nm (20.4 km) SSW. Retrieved 2020/09/24 20:00 UTC (58 minutes ago):

CYUL 242000Z 27007KT 15SM FEW025 SCT085 BKN150 BKN240 20/12 A2991 RMK CU1AC3AC3CI1 CU TR SLP129 DENSITY ALT 800FT

Closest aviation forecast (TAF) to Évasion Hélicoptère Heliport

Closest forecast is Montreal / Pierre Elliott Trudeau International Airport, 11.0 nm (20.4 km) SSW. Retrieved 2020/09/24 21:45 UTC (0 seconds ago):

TAF TAF CYUL 242041Z 2421/2518 28007KT P6SM FEW025 SCT080 BKN150 FM242200 30008KT P6SM BKN050 BECMG 2501/2503 05010KT FM250900 04012KT P6SM OVC040 FM251300 05012KT 6SM -SHRA BR OVC015 FM251600 06010KT P6SM OVC015 RMK NXT FCST BY 250000Z